South Bloomingville, Ohio
Current Conditions -  °F | °C
As of 3:55 AM on Sunday 23 Nov 2014 (Local Time) from KRZT Reporting Station
Overcast Overcast  
Wind Chill:   Ceiling: 7000
Heat Index:   Visibility: 10mi
Dew Point: -2°   Wind: 6mph
Humidity: 50%   Direction: 180°S
Pressure: 30.05"   Gusts: NA
Location:  39.42°N, 82.6°W
Report Text: KRZT 230855Z AUTO 18005KT 10SM BKN070 BKN075 OVC090 08/M02 A3005 RMK AO2
Loading
Personal Weather Stations






























Interactive Weather Map New forecast layout! Learn more

10-Day Weather Forecast

Advertisements
Track Severe Weather on mobile